| Date | Time | Temp. (oF) | Dew Point (oF) | Rel. Hum. (%) | Press. (in.) | Wind Dir. (deg.) | Wind Speed (mph) | Hourly Rainfall (i n.) |
|
|---|---|---|---|---|---|---|---|---|---|
| 1 | 12/29 | 24:00 | 28 | 23 | 82 | 29.74 | 230 | 1 | 0.00 |
| 2 | 12/28 | 23:00 | 28 | 22 | 81 | 29.74 | 230 | 1 | 0.00 |
| 3 | 12/28 | 22:00 | 29 | 23 | 80 | 29.74 | 230 | 0 | 0.00 |
| 4 | 12/28 | 21:00 | 29 | 23 | 80 | 29.74 | 230 | 0 | 0.00 |
| 5 | 12/28 | 20:00 | 30 | 20 | 66 | 29.75 | 130 | 2 | 0.00 |
| 6 | 12/28 | 19:00 | 30 | 17 | 59 | 29.75 | 130 | 1 | 0.00 |
| 7 | 12/28 | 18:00 | 30 | 16 | 56 | 29.73 | 150 | 1 | 0.00 |
| 8 | 12/28 | 17:00 | 31 | 14 | 51 | 29.73 | 310 | 2 | 0.00 |
| 9 | 12/28 | 16:00 | 32 | 13 | 46 | 29.74 | 150 | 4 | 0.00 |
| 10 | 12/28 | 15:00 | 33 | 12 | 42 | 29.76 | 160 | 2 | 0.00 |
| 11 | 12/28 | 14:00 | 33 | 11 | 41 | 29.79 | 290 | 10 | 0.00 |
| 12 | 12/28 | 13:00 | 32 | 10 | 41 | 29.82 | 150 | 4 | 0.00 |
| 13 | 12/28 | 12:00 | 31 | 11 | 44 | 29.85 | 230 | 2 | 0.00 |
| 14 | 12/28 | 11:00 | 30 | 15 | 54 | 29.92 | 320 | 4 | 0.00 |
| 15 | 12/28 | 10:00 | 26 | 15 | 65 | 29.95 | 300 | 1 | 0.00 |
| 16 | 12/28 | 09:00 | 23 | 15 | 73 | 29.97 | 300 | 1 | 0.00 |
| 17 | 12/28 | 08:00 | 21 | 14 | 76 | 29.95 | 300 | 0 | 0.00 |
| 18 | 12/28 | 07:00 | 22 | 14 | 74 | 29.95 | 300 | 0 | 0.00 |
| 19 | 12/28 | 06:00 | 24 | 15 | 70 | 29.95 | 300 | 0 | 0.00 |
| 20 | 12/28 | 05:00 | 22 | 14 | 72 | 29.95 | 300 | 0 | 0.00 |
| 21 | 12/28 | 04:00 | 24 | 14 | 68 | 29.96 | 300 | 0 | 0.00 |
| 22 | 12/28 | 03:00 | 26 | 14 | 61 | 29.97 | 340 | 6 | 0.00 |
| 23 | 12/28 | 02:00 | 27 | 13 | 57 | 29.97 | 290 | 4 | 0.00 |
| 24 | 12/28 | 01:00 | 27 | 14 | 59 | 29.97 | 320 | 10 | 0.00 |